Relevés horaires Chievres (Belgique)


Relevés horaires à Chievres - Lundi 16 Oct. 2017
Heure UTC1 Température [°C] Vent [km/h] Hum. [%] Pres.4 [hPa] Visi. [Km] Nébu. [octa] Préc.5 [mm] Cond.
2m. Res. Ros. Dir.2 Vit. Moy. Raf.3
23:00 14.9 14.9 13.4 SO 3.7 -- 7.4 91 1021.7(1.0/3h) 12 -- -- --
22:00 16.1 16.1 13.8 SO 5.6 -- 7.4 86 1021.2(0.8/3h) 17 -- -- --
21:00 16.8 16.8 14.0 SSO 5.6 -- 9.3 84 1020.8(0.5/3h) 17 -- -- --
20:00 17.0 17.0 14.2 S 7.4 -- 9.3 84 1020.6(0.6/3h) 17 -- -- --
19:00 17.3 17.3 14.5 S 7.4 -- 9.3 84 1020.3(0.9/3h) 19 -- -- --
18:00 18.2 18.2 14.2 S 5.6 -- 18.5 77 1020.2(1.1/3h) 20 -- -- --
17:00 19.9 19.9 14.4 S 7.4 -- 14.8 71 1019.7(0.2/3h) 20 -- -- --
16:00 21.7 21.7 15.1 S 3.7 -- 13.0 66 1019.2(-0.3/3h) 20 -- -- --
15:00 22.7 22.7 14.3 S 7.4 -- 18.5 59 1018.8(-1.2/3h) 20 -- -- --
14:00 24.2 24.2 14.2 S 11.1 -- 16.7 54 1019.3(-1.4/3h) 19 -- -- --
13:00 24.2 24.2 14.4 S 11.1 -- 18.5 54 1019.6(-1.6/3h) 20 -- -- --
12:00 24.1 24.1 15.1 S 9.3 -- 14.8 57 1020.2(-1.2/3h) 20 -- -- --
11:00 23.0 23.0 15.6 S 9.3 -- 14.8 63 1020.8(-0.5/3h) 19 -- -- --
10:00 21.2 21.2 14.7 S 9.3 -- 13.0 66 1021.3(0.1/3h) 20 -- -- --
09:00 19.5 19.5 14.9 S 5.6 -- 11.1 75 1021.6(0.6/3h) 20 -- -- --
08:00 17.2 17.2 14.0 S 5.6 -- 11.1 81 1021.7(0.6/3h) 16 -- -- --
07:00 15.9 15.9 13.4 SSE 5.6 -- 9.3 85 1021.3(0.4/3h) 19 -- -- --
06:00 15.3 15.3 13.1 SSE 3.7 -- 16.7 87 1021(0.0/3h) 19 -- trace/12h
NA
05:00 16.0 16.0 13.6 SSE 3.7 -- 7.4 86 1021(0.2/3h) 19 -- -- --
04:00 16.1 16.1 13.6 SSE 3.7 -- 5.6 85 1020.8(-0.6/3h) 19 -- -- --
03:00 16.1 16.1 14.0 S 3.7 -- 16.7 87 1021(0.0/3h) 17 -- -- NA
02:00 16.6 16.6 14.5 SE 3.7 -- 5.6 87 1020.7(-0.8/3h) 16 -- -- Il y a de la pluie faible et continue à la station au moment de l'observation
01:00 17.0 17.0 14.3 S 3.7 -- 16.7 84 1021.5(-0.1/3h) 19 -- -- NA
00:00 17.7 17.7 14.2 S 11.1 -- 16.7 80 1020.8(-0.5/3h) 20 -- -- --

1 Coordinated Universal Time. Actuellement il est 00:00 locale et 22:00 UTC.

2 Le vent souffle depuis la direction indiquée vers la direction oposée.

3 Les rafales max. sont disponible 40 min après l'heure du relevé.

4 Pour les stations d'altitude (plus de 600m) le géopotentiel du niveau le plus proche de la pression obligatoire est indiqué.

5 Les stations disposant d'un diffuseur peuvent indiquer "trace". Cela signifie que des précipitations ont touchés le sol mais que la quantité est inférieure à 0.1 mm.

Récapitulatif de la journée
Température [°C] Vent [km/h] Ensoleillement4 [h] Precipitations totale5 [mm] Pression [Hpa]
Min1 Max.2 Moy.3 Max. Min Max.
15.3 24.8 0 18.5 0 h 0 min 0 1018.8 1021.7

1 Température minimale relevée entre 18:00 UTC la veille et 18:00 UTC le jour donné.

2 Température maximale relevée entre 06:00 UTC le jour donné et 06:00 UTC le lendemain.

3 Vent moyen de la journée basé sur les relevés horaires.

4 Ensoleillement en heures relevé entre 06:00 UTC la veille et 06:00 UTC le jour donné.

5 Précipitations totales tombées entre 06:00 UTC la jour donné et 06:00 UTC le lendemain.

Graphiques horaires